Time;durP1;ratioP1;P1;durP2;ratioP2;P2;SDS_P1;SDS_P2;PMS_P1;PMS_P2;Temp;Humidity;BMP_temperature;BMP_pressure;BME280_temperature;BME280_humidity;BME280_pressure;Samples;Min_cycle;Max_cycle;Signal;HPM_P1;HPM_P2
2022/06/23 00:00:09;;;;;;;;;;;;;;;16.43;88.90;97893.28;1712455;81;24859;-87
2022/06/23 00:02:38;;;;;;;;;;;;;;;16.35;88.97;97894.58;1711501;82;20195;-83
2022/06/23 00:05:06;;;;;;;;;;;;;;;16.28;89.09;97891.73;1719849;81;26015;-83
2022/06/23 00:07:33;;;;;;;;;;;;;;;16.33;89.38;97893.41;1714719;81;24624;-82
2022/06/23 00:10:01;;;;;;;;;;;;;;;16.40;89.57;97887.02;1718307;81;20446;-83
2022/06/23 00:12:31;;;;;;;;;;;;;;;16.45;89.66;97886.05;1708743;81;25295;-83
2022/06/23 00:15:05;;;;;;;;;;;;;;;16.49;89.86;97886.06;1711489;82;21938;-83
2022/06/23 00:17:36;;;;;;;;;;;;;;;16.45;89.91;97883.41;1690529;82;26180;-82
2022/06/23 00:20:19;;;;;;;;;;;;;;;16.30;89.92;97888.45;1689776;84;24436;-82
2022/06/23 00:22:50;;;;;;;;;;;;;;;16.23;90.13;97890.05;1695144;82;20225;-83
2022/06/23 00:25:18;;;;;;;;;;;;;;;16.16;90.42;97885.04;1692695;82;25022;-88
2022/06/23 00:27:44;;;;;;;;;;;;;;;16.03;90.68;97880.20;1697268;82;22229;-83
2022/06/23 00:30:20;;;;;;;;;;;;;;;15.94;91.03;97883.73;1698394;82;26661;-83
2022/06/23 00:32:47;;;;;;;;;;;;;;;16.04;91.47;97888.42;1701497;82;24415;-83
2022/06/23 00:35:14;;;;;;;;;;;;;;;16.13;91.79;97886.20;1702746;82;20217;-83
2022/06/23 00:37:42;;;;;;;;;;;;;;;16.20;92.07;97881.13;1693801;82;25905;-83
2022/06/23 00:40:09;;;;;;;;;;;;;;;16.19;92.29;97886.90;1703586;82;22603;-83
2022/06/23 00:42:43;;;;;;;;;;;;;;;16.14;92.48;97887.03;1699187;82;26042;-83
2022/06/23 00:45:14;;;;;;;;;;;;;;;16.11;92.65;97893.43;1689509;82;24388;-83
2022/06/23 00:47:58;;;;;;;;;;;;;;;16.05;92.78;97890.09;1695993;82;20344;-83
2022/06/23 00:50:35;;;;;;;;;;;;;;;15.95;92.89;97889.36;1694406;82;24886;-83
2022/06/23 00:53:03;;;;;;;;;;;;;;;15.96;93.16;97893.66;1702554;82;21966;-87
2022/06/23 00:55:34;;;;;;;;;;;;;;;15.98;93.39;97896.16;1696199;82;26095;-82
2022/06/23 00:58:01;;;;;;;;;;;;;;;16.04;93.64;97901.62;1694067;82;24648;-83
2022/06/23 01:00:29;;;;;;;;;;;;;;;16.11;93.71;97904.48;1698607;82;20255;-83
2022/06/23 01:03:00;;;;;;;;;;;;;;;16.16;93.74;97900.39;1691602;82;24879;-83
2022/06/23 01:05:33;;;;;;;;;;;;;;;16.19;93.76;97903.23;1700564;82;22812;-84
2022/06/23 01:08:01;;;;;;;;;;;;;;;16.20;93.66;97908.33;1696499;82;26111;-84
2022/06/23 01:10:29;;;;;;;;;;;;;;;16.21;93.69;97903.39;1702548;82;24715;-82
2022/06/23 01:13:09;;;;;;;;;;;;;;;16.20;93.69;97908.33;1692258;82;20410;-82
2022/06/23 01:15:37;;;;;;;;;;;;;;;16.17;93.81;97915.26;1694897;82;24968;-83
2022/06/23 01:18:04;;;;;;;;;;;;;;;16.05;93.75;97915.66;1697997;83;22088;-87
2022/06/23 01:20:32;;;;;;;;;;;;;;;15.92;93.75;97918.71;1690452;82;26165;-87
2022/06/23 01:23:06;;;;;;;;;;;;;;;15.91;94.13;97913.09;1686849;82;24488;-88
2022/06/23 01:25:42;;;;;;;;;;;;;;;15.90;94.27;97912.75;1696831;82;20211;-82
2022/06/23 01:28:19;;;;;;;;;;;;;;;15.87;94.42;97919.14;1704487;82;24827;-83
2022/06/23 01:31:02;;;;;;;;;;;;;;;15.86;94.58;97912.72;1700856;82;22218;-88
2022/06/23 01:33:36;;;;;;;;;;;;;;;15.81;94.57;97911.03;1697327;82;26063;-88
2022/06/23 01:36:03;;;;;;;;;;;;;;;15.80;94.71;97910.69;1696961;82;24520;-88
2022/06/23 01:38:40;;;;;;;;;;;;;;;15.79;94.79;97914.30;1695623;84;20501;-88
2022/06/23 01:41:20;;;;;;;;;;;;;;;15.74;94.86;97917.41;1695786;82;25069;-84
2022/06/23 01:43:52;;;;;;;;;;;;;;;15.54;94.88;97912.45;1703068;82;22056;-83
2022/06/23 01:46:19;;;;;;;;;;;;;;;15.44;95.01;97922.52;1701922;81;26047;-82
2022/06/23 01:48:53;;;;;;;;;;;;;;;15.49;95.19;97923.42;1698681;82;24435;-83
2022/06/23 01:51:23;;;;;;;;;;;;;;;15.52;95.38;97925.77;1698566;82;20834;-83
2022/06/23 01:53:51;;;;;;;;;;;;;;;15.52;95.50;97929.73;1698230;84;24719;-83
2022/06/23 01:56:19;;;;;;;;;;;;;;;15.51;95.75;97924.08;1698080;82;22045;-83
2022/06/23 01:58:47;;;;;;;;;;;;;;;15.52;95.99;97924.94;1696196;82;26048;-83
2022/06/23 02:01:16;;;;;;;;;;;;;;;15.54;96.24;97929.59;1700402;82;24514;-83
2022/06/23 02:03:43;;;;;;;;;;;;;;;15.53;96.42;97928.75;1700199;82;20201;-83
2022/06/23 02:06:17;;;;;;;;;;;;;;;15.53;96.51;97931.88;1696608;82;24835;-83
2022/06/23 02:08:47;;;;;;;;;;;;;;;15.54;96.71;97935.70;1670557;82;22127;-83
2022/06/23 02:11:20;;;;;;;;;;;;;;;15.56;96.80;97932.39;1701457;82;26159;-83
2022/06/23 02:13:57;;;;;;;;;;;;;;;15.54;96.90;97939.65;1693675;82;25107;-83
2022/06/23 02:16:28;;;;;;;;;;;;;;;15.50;96.95;97936.91;1709792;81;20242;-83
2022/06/23 02:18:58;;;;;;;;;;;;;;;15.48;97.01;97937.58;1713202;81;24834;-82
2022/06/23 02:21:35;;;;;;;;;;;;;;;15.47;97.17;97931.95;1708756;81;22706;-83
2022/06/23 02:24:07;;;;;;;;;;;;;;;15.48;97.27;97936.26;1708260;81;26746;-83
2022/06/23 02:26:50;;;;;;;;;;;;;;;15.29;97.24;97942.48;1715620;81;25192;-83
2022/06/23 02:29:17;;;;;;;;;;;;;;;15.15;97.30;97944.80;1716794;81;20189;-83
2022/06/23 02:31:51;;;;;;;;;;;;;;;14.91;97.39;97946.16;1715810;81;24899;-83
2022/06/23 02:34:22;;;;;;;;;;;;;;;14.89;97.72;97948.09;1680723;83;23422;-82
2022/06/23 02:36:55;;;;;;;;;;;;;;;14.96;98.15;97948.34;1709996;82;26006;-82
2022/06/23 02:39:23;;;;;;;;;;;;;;;15.02;98.42;97959.63;1712357;81;24449;-82
2022/06/23 02:41:55;;;;;;;;;;;;;;;15.04;98.61;97956.37;1717425;81;20444;-81
2022/06/23 02:44:23;;;;;;;;;;;;;;;15.04;98.85;97969.55;1713029;81;24791;-83
2022/06/23 02:47:06;;;;;;;;;;;;;;;14.95;98.96;97969.08;1717667;81;22029;-82
2022/06/23 02:49:46;;;;;;;;;;;;;;;14.95;99.21;97966.45;1709600;81;26126;-82
2022/06/23 02:52:19;;;;;;;;;;;;;;;14.96;99.51;97972.06;1711931;81;24657;-82
2022/06/23 02:55:02;;;;;;;;;;;;;;;15.00;99.73;97976.09;1709518;81;20172;-82
2022/06/23 02:57:33;;;;;;;;;;;;;;;15.00;99.93;97982.16;1716775;81;25017;-82
2022/06/23 03:00:04;;;;;;;;;;;;;;;14.86;99.98;97982.66;1705382;83;22193;-82
2022/06/23 03:02:32;;;;;;;;;;;;;;;14.74;100.00;97982.97;1695186;81;26068;-82
2022/06/23 03:05:06;;;;;;;;;;;;;;;14.64;100.00;97979.89;1706659;81;25131;-83
2022/06/23 03:07:36;;;;;;;;;;;;;;;14.74;100.00;97989.07;1716349;81;20179;-82
2022/06/23 03:10:04;;;;;;;;;;;;;;;14.84;100.00;97985.91;1714889;82;24920;-82
2022/06/23 03:12:32;;;;;;;;;;;;;;;14.91;100.00;97987.00;1711811;81;22065;-82
2022/06/23 03:15:01;;;;;;;;;;;;;;;14.92;100.00;97987.34;1712813;83;26081;-82
2022/06/23 03:17:35;;;;;;;;;;;;;;;14.85;100.00;97989.37;1714423;81;24431;-82
2022/06/23 03:20:06;;;;;;;;;;;;;;;14.89;100.00;97994.72;1708834;81;20242;-82
2022/06/23 03:22:40;;;;;;;;;;;;;;;14.88;100.00;97999.16;1714283;82;24978;-82
2022/06/23 03:25:14;;;;;;;;;;;;;;;14.91;100.00;98002.81;1711039;81;21990;-82
2022/06/23 03:27:42;;;;;;;;;;;;;;;15.02;100.00;98010.53;1706802;81;25997;-83
2022/06/23 03:30:18;;;;;;;;;;;;;;;15.13;100.00;98009.51;1716382;82;24407;-83
2022/06/23 03:32:52;;;;;;;;;;;;;;;15.24;100.00;98013.27;1714828;81;20210;-82
2022/06/23 03:35:28;;;;;;;;;;;;;;;15.38;100.00;98012.77;1714559;81;24769;-82
2022/06/23 03:38:04;;;;;;;;;;;;;;;15.57;100.00;98014.99;1673380;83;20206;-83
2022/06/23 03:43:18;;;;;;;;;;;;;;;15.98;100.00;98016.25;1708039;82;24489;-83
2022/06/23 03:45:49;;;;;;;;;;;;;;;16.21;100.00;98020.89;1702571;81;20207;-83
2022/06/23 03:48:16;;;;;;;;;;;;;;;16.46;100.00;98022.41;1711142;81;24860;-83
2022/06/23 03:50:47;;;;;;;;;;;;;;;16.64;100.00;98027.18;1711279;81;22149;-83
2022/06/23 03:53:15;;;;;;;;;;;;;;;16.85;100.00;98024.20;1713851;82;26045;-83
2022/06/23 03:55:42;;;;;;;;;;;;;;;17.07;100.00;98026.30;1708839;81;24452;-82
2022/06/23 03:58:13;;;;;;;;;;;;;;;17.28;100.00;98021.93;1710655;81;20261;-82
2022/06/23 04:00:41;;;;;;;;;;;;;;;17.43;100.00;98029.59;1712766;82;24818;-87
2022/06/23 04:03:11;;;;;;;;;;;;;;;17.60;100.00;98031.34;1714879;82;21943;-87
2022/06/23 04:05:48;;;;;;;;;;;;;;;17.81;100.00;98029.56;1710761;82;26741;-87
2022/06/23 04:08:14;;;;;;;;;;;;;;;17.98;100.00;98035.23;1704883;82;24381;-87
2022/06/23 04:10:42;;;;;;;;;;;;;;;18.16;100.00;98035.92;1714658;81;20248;-83
2022/06/23 04:13:15;;;;;;;;;;;;;;;18.40;100.00;98035.08;1721665;81;24746;-83
2022/06/23 04:15:42;;;;;;;;;;;;;;;18.66;100.00;98038.41;1708324;82;22105;-86
2022/06/23 04:18:10;;;;;;;;;;;;;;;18.93;100.00;98033.74;1712011;81;25880;-82
2022/06/23 04:20:40;;;;;;;;;;;;;;;19.18;100.00;98032.67;1711245;81;24712;-83
2022/06/23 04:23:20;;;;;;;;;;;;;;;19.40;100.00;98039.88;1705282;81;20262;-83
2022/06/23 04:25:51;;;;;;;;;;;;;;;19.59;100.00;98044.79;1706133;81;25509;-83
2022/06/23 04:28:25;;;;;;;;;;;;;;;19.73;100.00;98042.41;1712289;81;22055;-83
2022/06/23 04:30:52;;;;;;;;;;;;;;;19.83;100.00;98041.19;1703848;81;26000;-82
2022/06/23 04:33:20;;;;;;;;;;;;;;;19.91;100.00;98045.64;1713819;81;24631;-82
2022/06/23 04:35:47;;;;;;;;;;;;;;;19.97;100.00;98052.88;1713229;81;20649;-82
2022/06/23 04:38:24;;;;;;;;;;;;;;;19.96;100.00;98053.91;1711155;81;24745;-82
2022/06/23 04:41:04;;;;;;;;;;;;;;;20.01;99.58;98057.69;1705769;82;21970;-82
2022/06/23 04:43:41;;;;;;;;;;;;;;;20.04;99.04;98057.33;1709692;81;26186;-82
2022/06/23 04:46:08;;;;;;;;;;;;;;;20.04;98.41;98054.67;1707777;81;24438;-82
2022/06/23 04:48:42;;;;;;;;;;;;;;;20.02;97.64;98057.16;1704466;81;20235;-82
2022/06/23 04:51:22;;;;;;;;;;;;;;;20.01;97.02;98062.17;1712853;82;24871;-82
2022/06/23 04:54:05;;;;;;;;;;;;;;;20.00;96.47;98067.16;1711556;81;22204;-82
2022/06/23 04:56:35;;;;;;;;;;;;;;;19.98;95.90;98074.46;1707714;82;25999;-82
2022/06/23 04:59:03;;;;;;;;;;;;;;;19.93;95.29;98078.98;1680430;82;24439;-84
2022/06/23 05:01:31;;;;;;;;;;;;;;;19.83;94.80;98074.89;1674333;83;20211;-83
2022/06/23 05:03:58;;;;;;;;;;;;;;;19.80;94.35;98079.23;1708808;81;24954;-83
2022/06/23 05:06:25;;;;;;;;;;;;;;;19.74;93.96;98079.92;1715003;81;22880;-82
2022/06/23 05:08:52;;;;;;;;;;;;;;;19.69;93.57;98089.73;1709781;82;25924;-82
2022/06/23 05:11:23;;;;;;;;;;;;;;;19.67;93.20;98089.57;1705911;81;24976;-82
2022/06/23 05:13:50;;;;;;;;;;;;;;;19.62;92.85;98090.09;1708801;82;20244;-82
2022/06/23 05:16:22;;;;;;;;;;;;;;;19.58;92.57;98098.88;1704611;82;25563;-82
2022/06/23 05:18:50;;;;;;;;;;;;;;;19.51;92.25;98099.27;1693860;82;22721;-84
2022/06/23 05:21:18;;;;;;;;;;;;;;;19.46;91.97;98100.27;1701362;82;26044;-83
2022/06/23 05:23:45;;;;;;;;;;;;;;;19.42;91.75;98104.21;1693970;82;24435;-83
2022/06/23 05:26:16;;;;;;;;;;;;;;;19.38;91.58;98104.73;1697931;82;20314;-83
2022/06/23 05:28:43;;;;;;;;;;;;;;;19.38;91.57;98108.22;1694961;82;24785;-87
2022/06/23 05:31:17;;;;;;;;;;;;;;;19.38;91.60;98107.38;1696574;82;21474;-88
2022/06/23 05:33:45;;;;;;;;;;;;;;;19.39;91.70;98113.86;1698966;82;26748;-88
2022/06/23 05:36:15;;;;;;;;;;;;;;;19.33;91.61;98118.52;1696866;82;25369;-88
2022/06/23 05:38:55;;;;;;;;;;;;;;;19.32;91.57;98120.00;1694180;82;20228;-83
2022/06/23 05:41:23;;;;;;;;;;;;;;;19.36;91.53;98124.83;1698601;82;24804;-83
2022/06/23 05:43:50;;;;;;;;;;;;;;;19.42;91.53;98118.02;1692651;82;22671;-83
2022/06/23 05:46:20;;;;;;;;;;;;;;;19.48;91.53;98125.30;1694559;82;25990;-83
2022/06/23 05:48:48;;;;;;;;;;;;;;;19.53;91.44;98129.59;1694183;82;24490;-83
2022/06/23 05:51:16;;;;;;;;;;;;;;;19.57;91.41;98129.11;1706767;82;20415;-82
2022/06/23 05:53:44;;;;;;;;;;;;;;;19.65;91.37;98132.21;1699065;82;24741;-82
2022/06/23 05:56:11;;;;;;;;;;;;;;;19.68;91.15;98125.75;1703045;82;22736;-83
2022/06/23 05:58:44;;;;;;;;;;;;;;;19.76;91.00;98127.02;1692025;82;26298;-83
2022/06/23 06:01:20;;;;;;;;;;;;;;;19.84;91.01;98129.16;1700428;82;25119;-83
2022/06/23 06:03:54;;;;;;;;;;;;;;;19.91;90.91;98127.98;1703991;82;20213;-83
2022/06/23 06:06:20;;;;;;;;;;;;;;;19.94;90.75;98128.45;1690797;82;24812;-83
2022/06/23 06:11:36;;;;;;;;;;;;;;;19.92;90.57;98137.58;1688366;82;26136;-82
2022/06/23 06:14:03;;;;;;;;;;;;;;;19.94;90.39;98143.55;1702761;82;24715;-82
2022/06/23 06:16:30;;;;;;;;;;;;;;;19.81;89.97;98143.27;1704810;82;20253;-82
2022/06/23 06:18:57;;;;;;;;;;;;;;;19.80;90.03;98138.98;1718726;81;25484;-82
2022/06/23 06:21:25;;;;;;;;;;;;;;;19.90;90.41;98145.74;1714095;81;22734;-82
2022/06/23 06:23:58;;;;;;;;;;;;;;;19.86;90.56;98148.89;1712898;81;26001;-82
2022/06/23 06:26:26;;;;;;;;;;;;;;;19.92;90.90;98152.19;1715120;81;24488;-83
2022/06/23 06:28:53;;;;;;;;;;;;;;;20.04;91.42;98154.30;1708528;81;20305;-83
2022/06/23 06:31:25;;;;;;;;;;;;;;;20.17;91.76;98155.07;1705490;82;25585;-83
2022/06/23 06:34:03;;;;;;;;;;;;;;;20.27;91.71;98157.00;1708387;82;21903;-83
2022/06/23 06:36:36;;;;;;;;;;;;;;;20.27;91.59;98155.67;1716097;81;26005;-83
2022/06/23 06:39:08;;;;;;;;;;;;;;;20.18;91.41;98156.73;1708412;81;24077;-84
2022/06/23 06:41:34;;;;;;;;;;;;;;;20.18;91.38;98159.39;1710299;81;20296;-83
2022/06/23 06:44:01;;;;;;;;;;;;;;;20.33;91.58;98162.16;1709260;81;20670;-82
2022/06/23 06:46:27;;;;;;;;;;;;;;;20.38;91.73;98161.95;1706090;81;22104;-83
2022/06/23 06:48:53;;;;;;;;;;;;;;;20.44;91.61;98166.58;1716665;81;26066;-83
2022/06/23 06:51:21;;;;;;;;;;;;;;;20.52;91.32;98168.83;1715048;81;20304;-88
2022/06/23 06:53:51;;;;;;;;;;;;;;;20.57;90.95;98163.81;1709853;81;20455;-88
2022/06/23 06:56:36;;;;;;;;;;;;;;;20.67;90.77;98165.26;1711702;81;24863;-83
2022/06/23 06:59:03;;;;;;;;;;;;;;;20.72;90.58;98168.22;1709383;81;22870;-83
2022/06/23 07:01:30;;;;;;;;;;;;;;;20.60;90.13;98171.45;1719498;81;26728;-88
2022/06/23 07:03:56;;;;;;;;;;;;;;;20.51;90.02;98167.20;1715308;82;24418;-88
2022/06/23 07:06:27;;;;;;;;;;;;;;;20.38;89.54;98171.26;1711184;81;20263;-88
2022/06/23 07:09:03;;;;;;;;;;;;;;;20.40;89.46;98171.89;1706710;82;25523;-84
2022/06/23 07:11:31;;;;;;;;;;;;;;;20.44;89.56;98169.23;1718535;81;22040;-84
2022/06/23 07:14:05;;;;;;;;;;;;;;;20.45;89.46;98175.38;1712379;81;26713;-84
2022/06/23 07:16:35;;;;;;;;;;;;;;;20.44;89.18;98177.70;1704349;81;24426;-84
2022/06/23 07:19:06;;;;;;;;;;;;;;;20.50;89.03;98180.16;1692492;82;20470;-88
2022/06/23 07:21:36;;;;;;;;;;;;;;;20.54;88.71;98180.95;1696621;82;24795;-83
2022/06/23 07:24:05;;;;;;;;;;;;;;;20.74;88.91;98181.31;1699546;82;23085;-84
2022/06/23 07:26:48;;;;;;;;;;;;;;;20.88;88.87;98182.72;1702699;82;26119;-84
2022/06/23 07:29:19;;;;;;;;;;;;;;;20.94;88.71;98181.68;1694823;82;25152;-88
2022/06/23 07:32:01;;;;;;;;;;;;;;;21.14;88.90;98174.38;1700086;82;20167;-88
2022/06/23 07:34:29;;;;;;;;;;;;;;;21.29;88.92;98182.38;1699486;82;24772;-88
2022/06/23 07:37:01;;;;;;;;;;;;;;;21.31;88.71;98185.70;1698766;82;22681;-83
2022/06/23 07:39:35;;;;;;;;;;;;;;;21.39;88.55;98186.94;1699546;82;26006;-84
2022/06/23 07:42:12;;;;;;;;;;;;;;;21.37;87.96;98190.80;1699227;82;24502;-83
2022/06/23 07:44:40;;;;;;;;;;;;;;;21.39;87.44;98191.44;1697919;82;20271;-83
2022/06/23 07:47:06;;;;;;;;;;;;;;;21.41;86.71;98200.91;1698565;82;25024;-84
2022/06/23 07:49:33;;;;;;;;;;;;;;;21.53;86.48;98198.64;1690299;82;21950;-84
2022/06/23 07:52:00;;;;;;;;;;;;;;;21.65;86.29;98202.01;1706976;82;26094;-84
2022/06/23 07:54:26;;;;;;;;;;;;;;;21.74;85.92;98197.41;1693467;82;23977;-84
2022/06/23 07:56:52;;;;;;;;;;;;;;;21.86;85.62;98195.95;1694167;82;20583;-84
2022/06/23 07:59:19;;;;;;;;;;;;;;;21.91;84.75;98198.88;1698640;82;25359;-83
2022/06/23 08:01:53;;;;;;;;;;;;;;;21.98;83.87;98197.67;1701670;82;21992;-84
2022/06/23 08:04:37;;;;;;;;;;;;;;;22.01;82.78;98191.46;1699391;82;27542;-89
2022/06/23 08:07:04;;;;;;;;;;;;;;;22.03;81.59;98198.77;1690627;82;24608;-84
2022/06/23 08:09:35;;;;;;;;;;;;;;;22.10;80.58;98194.84;1702276;82;20504;-88
2022/06/23 08:14:48;;;;;;;;;;;;;;;22.51;80.18;98193.80;1698185;82;22119;-83
2022/06/23 08:17:16;;;;;;;;;;;;;;;22.56;79.25;98202.06;1696154;82;26747;-88
2022/06/23 08:19:45;;;;;;;;;;;;;;;22.54;78.15;98195.58;1709227;81;24505;-88
2022/06/23 08:22:24;;;;;;;;;;;;;;;22.56;77.10;98202.06;1716278;82;20228;-83
2022/06/23 08:24:52;;;;;;;;;;;;;;;22.58;75.76;98205.89;1707312;81;25554;-83
2022/06/23 08:27:19;;;;;;;;;;;;;;;22.58;74.39;98204.55;1717103;81;22014;-83
2022/06/23 08:29:49;;;;;;;;;;;;;;;22.60;73.21;98210.00;1717480;81;26021;-84
2022/06/23 08:32:15;;;;;;;;;;;;;;;22.66;72.67;98206.58;1713524;82;24776;-83
2022/06/23 08:34:42;;;;;;;;;;;;;;;22.70;72.03;98212.36;1718743;81;20328;-84
2022/06/23 08:37:11;;;;;;;;;;;;;;;22.74;71.49;98211.02;1722514;81;24933;-84
2022/06/23 08:39:39;;;;;;;;;;;;;;;22.82;71.36;98217.05;1712044;81;22013;-84
2022/06/23 08:42:18;;;;;;;;;;;;;;;22.91;71.03;98211.89;1682469;83;26144;-83
2022/06/23 08:45:01;;;;;;;;;;;;;;;22.93;70.12;98215.72;1668565;84;24657;-83
2022/06/23 08:47:43;;;;;;;;;;;;;;;23.03;70.21;98205.54;1673376;83;20272;-88
2022/06/23 08:50:20;;;;;;;;;;;;;;;23.30;70.65;98206.59;1673535;83;24833;-89
2022/06/23 08:53:00;;;;;;;;;;;;;;;23.44;70.52;98203.02;1683874;83;21959;-89
2022/06/23 08:55:28;;;;;;;;;;;;;;;23.38;69.11;98204.30;1683291;83;26058;-88
2022/06/23 08:58:02;;;;;;;;;;;;;;;23.34;67.96;98205.20;1681686;83;25354;-84
2022/06/23 09:00:30;;;;;;;;;;;;;;;23.39;67.37;98208.13;1677873;83;20273;-84
2022/06/23 09:03:01;;;;;;;;;;;;;;;23.43;66.54;98206.70;1683163;83;24766;-83
2022/06/23 09:05:29;;;;;;;;;;;;;;;23.42;65.81;98206.38;1680073;83;22106;-83
2022/06/23 09:08:03;;;;;;;;;;;;;;;23.42;64.99;98210.90;1679331;83;26150;-88
2022/06/23 09:10:31;;;;;;;;;;;;;;;23.50;64.90;98204.95;1674653;83;25361;-89
2022/06/23 09:13:04;;;;;;;;;;;;;;;23.62;64.74;98205.24;1669711;83;20476;-88
2022/06/23 09:15:35;;;;;;;;;;;;;;;23.67;63.94;98201.47;1682868;83;24758;-82
2022/06/23 09:18:11;;;;;;;;;;;;;;;23.62;62.99;98202.57;1676084;83;21626;-83
2022/06/23 09:20:46;;;;;;;;;;;;;;;23.72;62.92;98202.54;1690545;83;25988;-84
2022/06/23 09:23:14;;;;;;;;;;;;;;;23.75;62.31;98203.97;1682966;83;24520;-88
2022/06/23 09:26:01;;;;;;;;;;;;;;;23.73;61.27;98201.49;1679458;83;20473;-89
2022/06/23 09:28:35;;;;;;;;;;;;;;;23.76;60.68;98204.30;1679937;83;24817;-84
2022/06/23 09:31:03;;;;;;;;;;;;;;;23.88;60.48;98205.91;1690410;83;22236;-84
2022/06/23 09:33:40;;;;;;;;;;;;;;;23.98;60.28;98201.03;1687380;83;26650;-84
2022/06/23 09:36:07;;;;;;;;;;;;;;;23.97;59.62;98197.53;1685925;83;25311;-84
2022/06/23 09:38:35;;;;;;;;;;;;;;;23.99;58.95;98198.16;1689369;83;20213;-84
2022/06/23 09:41:19;;;;;;;;;;;;;;;23.99;57.74;98207.52;1677571;83;24775;-89
2022/06/23 09:43:50;;;;;;;;;;;;;;;24.07;57.35;98206.00;1692250;83;21983;-88
2022/06/23 09:46:18;;;;;;;;;;;;;;;24.36;57.68;98200.92;1681751;83;26875;-88
2022/06/23 09:49:02;;;;;;;;;;;;;;;24.49;57.40;98206.84;1687190;83;24444;-83
2022/06/23 09:51:42;;;;;;;;;;;;;;;24.49;56.73;98208.98;1682180;84;20269;-83
2022/06/23 09:54:18;;;;;;;;;;;;;;;24.40;55.71;98206.69;1681736;83;25031;-83
2022/06/23 09:56:58;;;;;;;;;;;;;;;24.35;55.07;98206.47;1683890;83;21957;-88
2022/06/23 09:59:38;;;;;;;;;;;;;;;24.49;55.19;98206.30;1674740;83;25964;-88
2022/06/23 10:02:18;;;;;;;;;;;;;;;24.49;54.57;98207.64;1683685;83;24543;-84
2022/06/23 10:04:46;;;;;;;;;;;;;;;24.45;54.07;98203.73;1682179;83;20306;-84
2022/06/23 10:07:30;;;;;;;;;;;;;;;24.37;53.05;98210.61;1685839;83;25476;-89
2022/06/23 10:09:58;;;;;;;;;;;;;;;24.27;52.30;98202.14;1683480;83;22000;-84
2022/06/23 10:12:40;;;;;;;;;;;;;;;24.22;51.75;98203.22;1684360;83;26087;-84
2022/06/23 10:15:08;;;;;;;;;;;;;;;24.26;51.64;98206.34;1686092;83;24472;-88
2022/06/23 10:17:53;;;;;;;;;;;;;;;24.31;51.49;98203.38;1689660;83;20171;-89
2022/06/23 10:20:34;;;;;;;;;;;;;;;24.36;51.03;98206.79;1682341;83;25584;-84
2022/06/23 10:23:18;;;;;;;;;;;;;;;24.41;50.83;98200.32;1685924;83;22073;-86
2022/06/23 10:25:55;;;;;;;;;;;;;;;24.43;50.23;98203.13;1678323;83;26000;-83
2022/06/23 10:28:39;;;;;;;;;;;;;;;24.49;50.03;98200.95;1680129;83;24543;-89
2022/06/23 10:31:13;;;;;;;;;;;;;;;24.56;49.70;98199.64;1683182;83;20336;-88
2022/06/23 10:33:47;;;;;;;;;;;;;;;24.60;49.39;98200.38;1686111;83;25391;-88
2022/06/23 10:36:15;;;;;;;;;;;;;;;24.59;49.07;98201.42;1684928;83;28035;-84
2022/06/23 10:38:57;;;;;;;;;;;;;;;24.62;49.00;98200.69;1670668;83;26091;-84
2022/06/23 10:41:28;;;;;;;;;;;;;;;24.62;48.87;98204.70;1678354;83;24400;-84
2022/06/23 10:43:59;;;;;;;;;;;;;;;24.66;49.04;98201.42;1689028;83;20261;-84
2022/06/23 10:46:27;;;;;;;;;;;;;;;24.72;48.99;98199.27;1674015;83;25003;-89
2022/06/23 10:49:12;;;;;;;;;;;;;;;24.81;49.01;98201.27;1687505;83;22068;-89
2022/06/23 10:51:40;;;;;;;;;;;;;;;24.83;48.83;98196.52;1689144;83;26079;-83
2022/06/23 10:54:08;;;;;;;;;;;;;;;24.69;48.01;98197.53;1687918;83;24560;-83
2022/06/23 10:56:42;;;;;;;;;;;;;;;24.71;47.86;98198.95;1690650;83;20455;-84
2022/06/23 10:59:19;;;;;;;;;;;;;;;24.68;47.38;98196.70;1688105;83;30698;-89
2022/06/23 11:02:05;;;;;;;;;;;;;;;24.77;47.42;98192.80;1681727;83;22061;-89
2022/06/23 11:04:36;;;;;;;;;;;;;;;24.96;47.66;98196.06;1678903;84;26047;-83
2022/06/23 11:07:21;;;;;;;;;;;;;;;25.23;47.95;98196.91;1678263;83;25110;-84
2022/06/23 11:09:52;;;;;;;;;;;;;;;25.35;48.02;98193.92;1680324;83;20166;-89
2022/06/23 11:12:22;;;;;;;;;;;;;;;25.32;47.63;98188.96;1686010;83;24906;-84
2022/06/23 11:14:55;;;;;;;;;;;;;;;25.20;47.35;98197.30;1682932;83;22413;-84
2022/06/23 11:17:23;;;;;;;;;;;;;;;25.05;47.05;98192.66;1687394;83;26210;-84
2022/06/23 11:19:50;;;;;;;;;;;;;;;25.06;47.12;98202.86;1664082;83;24537;-83
2022/06/23 11:22:24;;;;;;;;;;;;;;;25.25;47.26;98201.55;1651326;84;20166;-88
2022/06/23 11:25:08;;;;;;;;;;;;;;;25.19;46.92;98196.19;1657807;84;25655;-89
2022/06/23 11:27:39;;;;;;;;;;;;;;;25.23;46.99;98188.05;1654565;84;22727;-83
2022/06/23 11:30:16;;;;;;;;;;;;;;;25.33;47.06;98200.51;1651092;85;26738;-84
2022/06/23 11:32:47;;;;;;;;;;;;;;;25.31;46.93;98198.02;1654132;85;24526;-84
2022/06/23 11:35:31;;;;;;;;;;;;;;;25.31;46.90;98195.34;1653700;84;20224;-84
2022/06/23 11:38:03;;;;;;;;;;;;;;;25.25;46.84;98196.70;1659068;84;24779;-84
2022/06/23 11:40:45;;;;;;;;;;;;;;;25.18;46.64;98191.86;1652387;84;21964;-83
2022/06/23 11:43:19;;;;;;;;;;;;;;;25.19;46.54;98191.66;1659864;84;26149;-83
2022/06/23 11:45:59;;;;;;;;;;;;;;;25.32;46.72;98188.13;1660799;84;24448;-83
2022/06/23 11:48:33;;;;;;;;;;;;;;;25.45;46.78;98187.31;1657972;84;20243;-83
2022/06/23 11:51:09;;;;;;;;;;;;;;;25.32;46.19;98186.28;1646709;84;24686;-84
2022/06/23 11:53:54;;;;;;;;;;;;;;;25.32;46.06;98194.83;1649629;84;22053;-84
2022/06/23 11:56:38;;;;;;;;;;;;;;;25.29;45.81;98196.09;1650017;84;26069;-84
2022/06/23 11:59:09;;;;;;;;;;;;;;;25.18;45.42;98193.20;1649595;84;24539;-89
2022/06/23 12:01:34;;;;;;;;;;;;;;;25.18;45.46;98187.33;1654599;85;20164;-89
2022/06/23 12:04:11;;;;;;;;;;;;;;;25.23;45.59;98189.38;1648186;84;24979;-89
2022/06/23 12:06:45;;;;;;;;;;;;;;;25.29;45.70;98197.42;1656395;84;38515;-89
2022/06/23 12:09:25;;;;;;;;;;;;;;;25.27;45.39;98193.29;1656170;84;25973;-85
2022/06/23 12:11:50;;;;;;;;;;;;;;;25.28;45.28;98190.41;1656031;84;24454;-84
2022/06/23 12:14:17;;;;;;;;;;;;;;;25.56;45.85;98183.52;1650086;84;21200;-89
2022/06/23 12:16:51;;;;;;;;;;;;;;;25.85;46.16;98180.90;1650952;85;24814;-84
2022/06/23 12:19:18;;;;;;;;;;;;;;;26.04;46.34;98174.63;1652505;84;22058;-84
2022/06/23 12:21:58;;;;;;;;;;;;;;;26.10;46.20;98175.64;1653251;84;26105;-84
2022/06/23 12:24:26;;;;;;;;;;;;;;;26.02;45.82;98179.37;1649979;84;24555;-84
2022/06/23 12:26:57;;;;;;;;;;;;;;;25.97;45.73;98176.50;1657401;84;20467;-84
2022/06/23 12:29:25;;;;;;;;;;;;;;;25.85;45.10;98173.37;1652664;84;24742;-83
2022/06/23 12:31:58;;;;;;;;;;;;;;;25.64;44.38;98166.41;1630350;84;22254;-83
2022/06/23 12:34:35;;;;;;;;;;;;;;;25.55;44.12;98169.78;1647139;84;26041;-83
2022/06/23 12:37:03;;;;;;;;;;;;;;;25.77;44.50;98162.34;1656066;84;25280;-83
2022/06/23 12:39:41;;;;;;;;;;;;;;;26.06;44.84;98165.88;1647911;85;20701;-83
2022/06/23 12:42:08;;;;;;;;;;;;;;;26.05;44.72;98159.37;1645074;84;24928;-84
2022/06/23 12:44:45;;;;;;;;;;;;;;;26.05;44.64;98159.37;1651890;85;22108;-84
2022/06/23 12:47:13;;;;;;;;;;;;;;;26.01;44.40;98157.64;1654659;84;26096;-84
2022/06/23 12:49:44;;;;;;;;;;;;;;;25.93;44.27;98155.17;1656014;84;24423;-84
2022/06/23 12:52:21;;;;;;;;;;;;;;;25.97;44.36;98159.08;1660827;84;20224;-84
2022/06/23 12:54:49;;;;;;;;;;;;;;;25.97;44.27;98153.70;1655300;84;24748;-83
2022/06/23 12:57:16;;;;;;;;;;;;;;;25.98;44.20;98150.00;1652689;84;22056;-84
2022/06/23 12:59:50;;;;;;;;;;;;;;;25.99;44.16;98150.31;1650253;86;26137;-83
2022/06/23 13:02:34;;;;;;;;;;;;;;;26.03;44.09;98145.34;1633008;86;25086;-83
2022/06/23 13:05:02;;;;;;;;;;;;;;;25.96;43.89;98145.90;1656672;86;20179;-83
2022/06/23 13:07:29;;;;;;;;;;;;;;;25.91;43.58;98147.88;1653865;84;24878;-89
2022/06/23 13:10:12;;;;;;;;;;;;;;;25.84;43.31;98143.05;1653098;84;21993;-88
2022/06/23 13:12:40;;;;;;;;;;;;;;;25.84;43.32;98141.70;1653019;84;26082;-88
2022/06/23 13:15:23;;;;;;;;;;;;;;;25.92;43.50;98142.80;1654883;85;24516;-88
2022/06/23 13:17:51;;;;;;;;;;;;;;;26.05;43.49;98141.94;1647141;84;20757;-89